Time;durP1;ratioP1;P1;durP2;ratioP2;P2;SDS_P1;SDS_P2;PMS_P1;PMS_P2;Temp;Humidity;BMP_temperature;BMP_pressure;BME280_temperature;BME280_humidity;BME280_pressure;Samples;Min_cycle;Max_cycle;Signal;HPM_P1;HPM_P2
2023/04/05 00:01:19;;;;;;;7.95;4.72;;;;;;;;;;4992218;28;20037;-75
2023/04/05 00:03:46;;;;;;;9.05;4.90;;;;;;;;;;5010195;28;20024;-76
2023/04/05 00:06:12;;;;;;;8.98;4.85;;;;;;;;;;5013007;28;20120;-76
2023/04/05 00:08:38;;;;;;;7.72;4.50;;;;;;;;;;4991314;28;20030;-77
2023/04/05 00:11:03;;;;;;;7.35;4.25;;;;;;;;;;5007888;28;20036;-77
2023/04/05 00:13:29;;;;;;;7.35;4.70;;;;;;;;;;5010307;28;20076;-76
2023/04/05 00:15:57;;;;;;;7.15;4.97;;;;;;;;;;4992687;28;20394;-75
2023/04/05 00:18:22;;;;;;;8.13;4.45;;;;;;;;;;5004865;28;20363;-76
2023/04/05 00:20:51;;;;;;;7.47;4.95;;;;;;;;;;5004937;28;20048;-75
2023/04/05 00:23:17;;;;;;;8.25;4.60;;;;;;;;;;4991871;28;20030;-76
2023/04/05 00:25:43;;;;;;;7.45;5.00;;;;;;;;;;4988581;28;20029;-76
2023/04/05 00:28:09;;;;;;;8.65;5.05;;;;;;;;;;5009222;28;20053;-75
2023/04/05 00:30:35;;;;;;;8.38;5.28;;;;;;;;;;5007016;28;20055;-75
2023/04/05 00:33:00;;;;;;;7.32;5.03;;;;;;;;;;5011493;28;20045;-76
2023/04/05 00:35:27;;;;;;;7.43;5.00;;;;;;;;;;4987734;28;20037;-76
2023/04/05 00:37:52;;;;;;;7.85;5.10;;;;;;;;;;4990380;28;20489;-76
2023/04/05 00:40:17;;;;;;;8.45;4.93;;;;;;;;;;5008579;28;20030;-76
2023/04/05 00:42:43;;;;;;;8.02;4.63;;;;;;;;;;5005701;28;20057;-75
2023/04/05 00:45:08;;;;;;;9.27;5.32;;;;;;;;;;5008442;28;20025;-75
2023/04/05 00:47:34;;;;;;;7.45;4.45;;;;;;;;;;4976572;28;20026;-76
2023/04/05 00:50:00;;;;;;;8.38;4.90;;;;;;;;;;4996050;28;20397;-76
2023/04/05 00:52:26;;;;;;;8.95;4.80;;;;;;;;;;4989124;28;20029;-78
2023/04/05 00:54:52;;;;;;;8.45;5.15;;;;;;;;;;4991032;28;20441;-76
2023/04/05 00:57:18;;;;;;;10.40;5.18;;;;;;;;;;4998943;28;20386;-75
2023/04/05 00:59:44;;;;;;;10.90;5.07;;;;;;;;;;4995173;28;20038;-75
2023/04/05 01:02:16;;;;;;;8.68;5.00;;;;;;;;;;5007163;28;20022;-75
2023/04/05 01:04:48;;;;;;;7.53;5.05;;;;;;;;;;5007316;28;20026;-75
2023/04/05 01:07:46;;;;;;;8.68;4.65;;;;;;;;;;5009559;28;20356;-76
2023/04/05 01:10:15;;;;;;;8.18;4.47;;;;;;;;;;5002405;28;20076;-77
2023/04/05 01:12:40;;;;;;;8.60;5.38;;;;;;;;;;5006456;28;20482;-75
2023/04/05 01:15:06;;;;;;;9.85;5.15;;;;;;;;;;5008624;28;20036;-75
2023/04/05 01:17:35;;;;;;;6.72;4.70;;;;;;;;;;4988201;28;20054;-76
2023/04/05 01:20:12;;;;;;;10.15;4.75;;;;;;;;;;4994418;28;20044;-76
2023/04/05 01:23:02;;;;;;;8.48;4.90;;;;;;;;;;5005424;28;20037;-75
2023/04/05 01:25:46;;;;;;;9.15;4.40;;;;;;;;;;5004590;28;20018;-75
2023/04/05 01:28:39;;;;;;;7.68;5.30;;;;;;;;;;4998877;28;20026;-76
2023/04/05 01:31:36;;;;;;;10.90;4.53;;;;;;;;;;5006273;28;20035;-76
2023/04/05 01:34:24;;;;;;;8.20;4.85;;;;;;;;;;5006332;28;20141;-76
2023/04/05 01:36:55;;;;;;;7.32;4.57;;;;;;;;;;5006718;28;20076;-77
2023/04/05 01:39:23;;;;;;;7.68;4.68;;;;;;;;;;4989779;28;20092;-76
2023/04/05 01:41:48;;;;;;;7.88;5.22;;;;;;;;;;4984344;28;20029;-76
2023/04/05 01:44:14;;;;;;;9.23;5.20;;;;;;;;;;5011317;28;20089;-76
2023/04/05 01:46:40;;;;;;;9.77;5.07;;;;;;;;;;4990687;28;20401;-76
2023/04/05 01:49:05;;;;;;;8.68;5.38;;;;;;;;;;5007387;28;20040;-76
2023/04/05 01:51:31;;;;;;;9.25;5.38;;;;;;;;;;5005914;28;20033;-76
2023/04/05 01:53:56;;;;;;;9.77;5.10;;;;;;;;;;5012835;28;20087;-75
2023/04/05 01:56:22;;;;;;;8.95;4.88;;;;;;;;;;5008260;28;20417;-76
2023/04/05 01:58:47;;;;;;;7.60;4.70;;;;;;;;;;4992038;28;20026;-76
2023/04/05 02:01:12;;;;;;;9.23;5.55;;;;;;;;;;4994017;28;20041;-76
2023/04/05 02:03:38;;;;;;;7.72;4.78;;;;;;;;;;4989457;28;20029;-77
2023/04/05 02:06:04;;;;;;;8.02;5.10;;;;;;;;;;4983960;28;20026;-76
2023/04/05 02:08:29;;;;;;;8.32;5.15;;;;;;;;;;5008434;28;20032;-75
2023/04/05 02:10:55;;;;;;;7.72;4.57;;;;;;;;;;4991180;28;20029;-76
2023/04/05 02:13:24;;;;;;;7.68;5.00;;;;;;;;;;5011972;28;20057;-76
2023/04/05 02:15:50;;;;;;;8.07;4.75;;;;;;;;;;5008889;28;20041;-75
2023/04/05 02:18:28;;;;;;;9.77;5.22;;;;;;;;;;5010831;28;20030;-76
2023/04/05 02:21:06;;;;;;;8.40;4.70;;;;;;;;;;4988899;28;20132;-76
2023/04/05 02:23:33;;;;;;;8.00;4.80;;;;;;;;;;5011124;28;20470;-76
2023/04/05 02:25:58;;;;;;;7.25;4.80;;;;;;;;;;5004846;28;20026;-76
2023/04/05 02:28:24;;;;;;;7.32;4.30;;;;;;;;;;4994484;28;20033;-76
2023/04/05 02:30:49;;;;;;;8.00;4.80;;;;;;;;;;4991466;28;20056;-76
2023/04/05 02:33:15;;;;;;;7.63;4.60;;;;;;;;;;4994299;28;20080;-76
2023/04/05 02:35:40;;;;;;;8.27;4.68;;;;;;;;;;5007714;28;20036;-76
2023/04/05 02:38:06;;;;;;;7.60;4.43;;;;;;;;;;4985517;28;20041;-77
2023/04/05 02:40:32;;;;;;;6.47;3.97;;;;;;;;;;5009722;28;20107;-76
2023/04/05 02:42:57;;;;;;;7.38;4.38;;;;;;;;;;5005405;28;20033;-77
2023/04/05 02:45:22;;;;;;;7.35;4.60;;;;;;;;;;5006235;28;20038;-77
2023/04/05 02:47:48;;;;;;;6.38;4.15;;;;;;;;;;4988638;28;20021;-77
2023/04/05 02:50:14;;;;;;;7.28;4.63;;;;;;;;;;5007350;28;20022;-76
2023/04/05 02:52:39;;;;;;;7.22;4.20;;;;;;;;;;4995487;28;20101;-77
2023/04/05 02:55:05;;;;;;;8.60;4.50;;;;;;;;;;5014727;28;20026;-76
2023/04/05 02:57:31;;;;;;;6.80;4.25;;;;;;;;;;4995485;28;20036;-76
2023/04/05 02:59:56;;;;;;;6.32;3.95;;;;;;;;;;5015300;28;20026;-76
2023/04/05 03:02:22;;;;;;;6.80;4.55;;;;;;;;;;4991283;28;20027;-77
2023/04/05 03:04:47;;;;;;;7.70;4.28;;;;;;;;;;5012908;28;20026;-76
2023/04/05 03:07:17;;;;;;;7.40;4.28;;;;;;;;;;5011176;28;20442;-76
2023/04/05 03:09:46;;;;;;;9.15;4.20;;;;;;;;;;4990028;28;20486;-76
2023/04/05 03:12:12;;;;;;;7.35;4.80;;;;;;;;;;4983230;28;20085;-77
2023/04/05 03:14:38;;;;;;;6.95;4.15;;;;;;;;;;5013084;28;20454;-77
2023/04/05 03:17:05;;;;;;;8.93;4.38;;;;;;;;;;5015112;28;20025;-76
2023/04/05 03:19:31;;;;;;;7.07;4.13;;;;;;;;;;4992689;28;20120;-76
2023/04/05 03:21:57;;;;;;;6.63;4.30;;;;;;;;;;4996968;28;20474;-77
2023/04/05 03:24:22;;;;;;;7.60;4.47;;;;;;;;;;4993441;28;20022;-77
2023/04/05 03:26:48;;;;;;;8.65;4.25;;;;;;;;;;5015498;28;20385;-76
2023/04/05 03:29:15;;;;;;;7.43;4.15;;;;;;;;;;4996068;28;20074;-77
2023/04/05 03:31:40;;;;;;;8.90;4.28;;;;;;;;;;5014341;28;20497;-76
2023/04/05 03:34:06;;;;;;;7.68;4.53;;;;;;;;;;4997022;28;20029;-76
2023/04/05 03:36:40;;;;;;;7.18;4.20;;;;;;;;;;5011483;28;20036;-77
2023/04/05 03:39:08;;;;;;;6.85;3.95;;;;;;;;;;5012923;28;20048;-76
2023/04/05 03:41:33;;;;;;;7.38;4.75;;;;;;;;;;5015681;28;20077;-76
2023/04/05 03:43:59;;;;;;;8.27;4.30;;;;;;;;;;5013336;28;20115;-76
2023/04/05 03:46:24;;;;;;;8.38;4.85;;;;;;;;;;4991678;28;20480;-77
2023/04/05 03:48:49;;;;;;;8.48;4.50;;;;;;;;;;5010996;28;20084;-77
2023/04/05 03:51:15;;;;;;;7.30;4.55;;;;;;;;;;5008609;28;21650;-77
2023/04/05 03:53:40;;;;;;;7.15;4.10;;;;;;;;;;4992909;28;21274;-76
2023/04/05 03:56:06;;;;;;;7.78;4.25;;;;;;;;;;4991921;28;20033;-78
2023/04/05 03:58:32;;;;;;;6.78;4.30;;;;;;;;;;5014020;28;20053;-77
2023/04/05 04:00:57;;;;;;;7.32;4.35;;;;;;;;;;5009940;28;20056;-76
2023/04/05 04:03:24;;;;;;;7.00;4.13;;;;;;;;;;4994811;28;20083;-76
2023/04/05 04:05:50;;;;;;;6.55;3.95;;;;;;;;;;4991055;28;20030;-76
2023/04/05 04:08:16;;;;;;;7.22;3.92;;;;;;;;;;4993920;28;20071;-76
2023/04/05 04:10:41;;;;;;;7.88;3.97;;;;;;;;;;5001604;28;20029;-77
2023/04/05 04:13:06;;;;;;;7.55;4.20;;;;;;;;;;5013296;28;20044;-76
2023/04/05 04:15:32;;;;;;;6.00;3.70;;;;;;;;;;5022816;28;20173;-76
2023/04/05 04:17:57;;;;;;;7.78;4.50;;;;;;;;;;5011308;28;20117;-77
2023/04/05 04:20:22;;;;;;;7.80;4.60;;;;;;;;;;5017766;28;20033;-76
2023/04/05 04:22:48;;;;;;;6.65;4.20;;;;;;;;;;5004993;28;20065;-76
2023/04/05 04:25:17;;;;;;;7.55;4.55;;;;;;;;;;4998957;28;20535;-76
2023/04/05 04:27:43;;;;;;;7.95;4.65;;;;;;;;;;5011642;28;20265;-76
2023/04/05 04:30:11;;;;;;;6.97;4.10;;;;;;;;;;5014684;28;20522;-76
2023/04/05 04:32:50;;;;;;;6.57;4.28;;;;;;;;;;4995700;28;20033;-77
2023/04/05 04:35:19;;;;;;;7.03;4.15;;;;;;;;;;5010355;28;20385;-77
2023/04/05 04:37:51;;;;;;;8.52;4.30;;;;;;;;;;5012532;28;20026;-77
2023/04/05 04:40:17;;;;;;;9.32;4.40;;;;;;;;;;5021568;28;20104;-76
2023/04/05 04:42:45;;;;;;;9.30;4.55;;;;;;;;;;5011697;28;20113;-76
2023/04/05 04:45:18;;;;;;;7.00;4.10;;;;;;;;;;4987944;28;20054;-76
2023/04/05 04:47:46;;;;;;;7.90;4.28;;;;;;;;;;5008289;28;20120;-78
2023/04/05 04:50:12;;;;;;;7.97;4.35;;;;;;;;;;4992319;28;20026;-76
2023/04/05 04:52:39;;;;;;;9.98;4.40;;;;;;;;;;4996060;28;20021;-76
2023/04/05 04:55:08;;;;;;;9.88;4.60;;;;;;;;;;5011767;28;20105;-78
2023/04/05 04:57:33;;;;;;;9.18;4.43;;;;;;;;;;5012365;28;20022;-77
2023/04/05 04:59:58;;;;;;;8.50;4.57;;;;;;;;;;5007745;28;20034;-76
2023/04/05 05:02:25;;;;;;;8.00;4.78;;;;;;;;;;4991445;28;20022;-78
2023/04/05 05:04:50;;;;;;;9.02;4.65;;;;;;;;;;5009870;28;20382;-76
2023/04/05 05:07:16;;;;;;;8.00;4.53;;;;;;;;;;4988621;28;20027;-76
2023/04/05 05:09:42;;;;;;;8.15;4.47;;;;;;;;;;5010591;28;20037;-76
2023/04/05 05:12:07;;;;;;;8.85;4.35;;;;;;;;;;5010314;28;20471;-77
2023/04/05 05:14:33;;;;;;;8.18;4.50;;;;;;;;;;4993383;28;20385;-76
2023/04/05 05:16:58;;;;;;;10.35;4.65;;;;;;;;;;4978878;28;20493;-78
2023/04/05 05:19:24;;;;;;;8.05;4.43;;;;;;;;;;4996173;28;20446;-76
2023/04/05 05:21:51;;;;;;;8.98;4.82;;;;;;;;;;4991195;28;20049;-76
2023/04/05 05:24:16;;;;;;;9.30;4.72;;;;;;;;;;5012412;28;20482;-76
2023/04/05 05:26:42;;;;;;;7.07;4.47;;;;;;;;;;4977474;28;20030;-76
2023/04/05 05:29:07;;;;;;;8.95;4.70;;;;;;;;;;5010996;28;20033;-77
2023/04/05 05:31:33;;;;;;;8.63;4.88;;;;;;;;;;5005695;28;20045;-79
2023/04/05 05:33:58;;;;;;;11.02;4.70;;;;;;;;;;4992130;28;22267;-78
2023/04/05 05:36:24;;;;;;;8.88;5.03;;;;;;;;;;4991868;28;20034;-76
2023/04/05 05:38:51;;;;;;;8.73;5.22;;;;;;;;;;5001498;28;20571;-77
2023/04/05 05:41:17;;;;;;;7.40;4.53;;;;;;;;;;4990186;28;20057;-76
2023/04/05 05:43:42;;;;;;;8.15;4.78;;;;;;;;;;5005072;28;20022;-77
2023/04/05 05:46:08;;;;;;;8.45;4.95;;;;;;;;;;4994076;28;20029;-77
2023/04/05 05:48:33;;;;;;;9.32;5.28;;;;;;;;;;4989416;28;20824;-77
2023/04/05 05:51:00;;;;;;;9.95;4.75;;;;;;;;;;5005645;28;20040;-77
2023/04/05 05:53:26;;;;;;;8.70;4.97;;;;;;;;;;4990784;28;20103;-76
2023/04/05 05:55:51;;;;;;;7.57;4.28;;;;;;;;;;5010097;28;20065;-76
2023/04/05 05:58:17;;;;;;;8.05;5.03;;;;;;;;;;4998764;28;20466;-76
2023/04/05 06:00:43;;;;;;;8.57;4.82;;;;;;;;;;4989649;28;20040;-76
2023/04/05 06:03:08;;;;;;;8.65;4.68;;;;;;;;;;5001072;28;20024;-77
2023/04/05 06:05:34;;;;;;;9.10;4.90;;;;;;;;;;5000037;28;20686;-77
2023/04/05 06:07:59;;;;;;;8.82;5.13;;;;;;;;;;4987789;28;20536;-77
2023/04/05 06:10:25;;;;;;;10.82;4.95;;;;;;;;;;5007720;28;20025;-78
2023/04/05 06:12:50;;;;;;;9.82;5.25;;;;;;;;;;5003414;28;20457;-77
2023/04/05 06:15:16;;;;;;;10.32;4.50;;;;;;;;;;4989350;28;20021;-78
2023/04/05 06:17:41;;;;;;;9.13;4.43;;;;;;;;;;4993794;28;20036;-77
2023/04/05 06:20:10;;;;;;;9.80;5.07;;;;;;;;;;4992669;28;20120;-78
2023/04/05 06:22:35;;;;;;;8.00;4.97;;;;;;;;;;4984311;28;20030;-77
2023/04/05 06:25:01;;;;;;;11.38;5.28;;;;;;;;;;4989772;28;20024;-76
2023/04/05 06:27:26;;;;;;;7.78;4.97;;;;;;;;;;4995991;28;20477;-76
2023/04/05 06:29:54;;;;;;;9.90;4.97;;;;;;;;;;5012442;28;20041;-77
2023/04/05 06:32:19;;;;;;;8.10;4.78;;;;;;;;;;5008907;28;20025;-77
2023/04/05 06:34:47;;;;;;;8.32;4.68;;;;;;;;;;5011935;28;20091;-77
2023/04/05 06:37:13;;;;;;;10.55;5.65;;;;;;;;;;4991414;28;20402;-77
2023/04/05 06:39:38;;;;;;;8.35;4.75;;;;;;;;;;5014004;28;20040;-78
2023/04/05 06:42:04;;;;;;;10.93;4.30;;;;;;;;;;4993295;28;20121;-77
2023/04/05 06:44:29;;;;;;;9.35;5.57;;;;;;;;;;5008619;28;20029;-76
2023/04/05 06:46:55;;;;;;;9.30;5.22;;;;;;;;;;4989587;28;20033;-78
2023/04/05 06:49:20;;;;;;;8.70;5.20;;;;;;;;;;4990901;28;20117;-77
2023/04/05 06:51:45;;;;;;;9.25;5.07;;;;;;;;;;5017090;28;20478;-77
2023/04/05 06:54:11;;;;;;;9.82;5.20;;;;;;;;;;5013888;28;20374;-77
2023/04/05 06:56:36;;;;;;;10.70;4.97;;;;;;;;;;4994500;28;20033;-78
2023/04/05 06:59:02;;;;;;;9.93;5.97;;;;;;;;;;4992601;28;20037;-77
2023/04/05 07:01:28;;;;;;;9.23;5.38;;;;;;;;;;4994218;28;20025;-77
2023/04/05 07:03:53;;;;;;;10.48;6.07;;;;;;;;;;4980435;28;20034;-76
2023/04/05 07:06:18;;;;;;;10.88;6.05;;;;;;;;;;5005205;28;20022;-77
2023/04/05 07:08:44;;;;;;;12.60;6.32;;;;;;;;;;4987099;28;20080;-76
2023/04/05 07:11:12;;;;;;;10.07;5.93;;;;;;;;;;5007772;28;20026;-76
2023/04/05 07:13:37;;;;;;;12.35;5.70;;;;;;;;;;5020358;28;20487;-77
2023/04/05 07:16:02;;;;;;;10.90;5.72;;;;;;;;;;4993649;28;20049;-77
2023/04/05 07:18:28;;;;;;;10.10;5.38;;;;;;;;;;5008943;28;20486;-77
2023/04/05 07:20:58;;;;;;;10.98;6.18;;;;;;;;;;4989675;28;20117;-77
2023/04/05 07:23:25;;;;;;;10.35;5.65;;;;;;;;;;5012706;28;20433;-77
2023/04/05 07:25:50;;;;;;;11.10;5.43;;;;;;;;;;5010375;28;20079;-76
2023/04/05 07:28:16;;;;;;;10.82;5.85;;;;;;;;;;5011640;28;20030;-76
2023/04/05 07:30:41;;;;;;;11.15;5.78;;;;;;;;;;5010027;28;20081;-77
2023/04/05 07:33:08;;;;;;;10.88;5.68;;;;;;;;;;4998214;28;20510;-77
2023/04/05 07:35:33;;;;;;;8.85;5.10;;;;;;;;;;5014443;28;20030;-76
2023/04/05 07:37:58;;;;;;;10.50;5.70;;;;;;;;;;5015864;28;20037;-76
2023/04/05 07:40:24;;;;;;;11.35;6.07;;;;;;;;;;5012760;28;20471;-76
2023/04/05 07:42:49;;;;;;;9.60;5.75;;;;;;;;;;5015777;28;20030;-76
2023/04/05 07:45:15;;;;;;;12.75;5.93;;;;;;;;;;5006160;28;20471;-77
2023/04/05 07:47:40;;;;;;;8.70;5.32;;;;;;;;;;5009765;28;20402;-77
2023/04/05 07:50:06;;;;;;;9.98;5.57;;;;;;;;;;5002851;28;20041;-76
2023/04/05 07:52:31;;;;;;;10.68;5.95;;;;;;;;;;4998976;28;20029;-76
2023/04/05 07:54:57;;;;;;;9.38;5.82;;;;;;;;;;5018779;28;20117;-76
2023/04/05 07:57:22;;;;;;;8.32;5.35;;;;;;;;;;4999156;28;20030;-76
2023/04/05 07:59:51;;;;;;;9.45;5.00;;;;;;;;;;5010320;28;20032;-76
2023/04/05 08:02:17;;;;;;;10.65;5.80;;;;;;;;;;5014382;28;20026;-76
2023/04/05 08:04:42;;;;;;;10.25;5.63;;;;;;;;;;5014771;28;20077;-77
2023/04/05 08:07:08;;;;;;;12.60;5.65;;;;;;;;;;5008270;28;20033;-77
2023/04/05 08:09:35;;;;;;;10.57;5.38;;;;;;;;;;5011368;28;21141;-75
2023/04/05 08:12:01;;;;;;;12.32;6.03;;;;;;;;;;4988653;28;20065;-76
2023/04/05 08:14:27;;;;;;;8.93;5.05;;;;;;;;;;4991962;28;20026;-76
2023/04/05 08:16:52;;;;;;;9.73;5.13;;;;;;;;;;4997489;28;20440;-76
2023/04/05 08:19:18;;;;;;;9.45;5.55;;;;;;;;;;5012406;28;20034;-76
2023/04/05 08:21:43;;;;;;;9.43;5.20;;;;;;;;;;5015322;28;20105;-75
2023/04/05 08:24:08;;;;;;;10.05;5.63;;;;;;;;;;4996609;28;20034;-75
2023/04/05 08:26:34;;;;;;;9.52;4.78;;;;;;;;;;4997367;28;20406;-76
2023/04/05 08:28:59;;;;;;;10.27;5.25;;;;;;;;;;4996632;28;20424;-76
2023/04/05 08:31:25;;;;;;;12.10;5.22;;;;;;;;;;5015149;28;20386;-76
2023/04/05 08:33:50;;;;;;;9.50;5.10;;;;;;;;;;4997800;28;20072;-76
2023/04/05 08:36:16;;;;;;;10.55;5.28;;;;;;;;;;5015416;28;20432;-76
2023/04/05 08:38:41;;;;;;;8.38;5.47;;;;;;;;;;5010908;28;21109;-77
2023/04/05 08:41:10;;;;;;;7.63;5.05;;;;;;;;;;4994196;28;20058;-76
2023/04/05 08:43:58;;;;;;;10.32;5.43;;;;;;;;;;5010461;28;20032;-76
2023/04/05 08:46:25;;;;;;;9.18;5.38;;;;;;;;;;5010146;28;20466;-76
2023/04/05 08:48:51;;;;;;;9.43;5.45;;;;;;;;;;5009891;28;20113;-75
2023/04/05 08:51:21;;;;;;;9.43;5.32;;;;;;;;;;4994105;28;20109;-76
2023/04/05 08:53:47;;;;;;;11.30;5.30;;;;;;;;;;5005326;28;20030;-75
2023/04/05 08:56:24;;;;;;;9.02;5.05;;;;;;;;;;5007844;28;20026;-77
2023/04/05 08:59:10;;;;;;;10.65;6.60;;;;;;;;;;5003897;28;20030;-75
2023/04/05 09:01:38;;;;;;;10.73;5.60;;;;;;;;;;5013634;28;20038;-76
2023/04/05 09:04:17;;;;;;;10.30;6.13;;;;;;;;;;4998893;28;20062;-76
2023/04/05 09:06:43;;;;;;;11.50;5.60;;;;;;;;;;5013420;28;20026;-76
2023/04/05 09:09:10;;;;;;;11.75;5.47;;;;;;;;;;5013640;28;20088;-76
2023/04/05 09:11:36;;;;;;;11.27;5.63;;;;;;;;;;5014412;28;20471;-75
2023/04/05 09:14:03;;;;;;;10.93;5.55;;;;;;;;;;5012080;28;20037;-76
2023/04/05 09:16:30;;;;;;;9.15;5.28;;;;;;;;;;5013807;28;20127;-77
2023/04/05 09:18:55;;;;;;;9.70;5.55;;;;;;;;;;4995558;28;20022;-76
2023/04/05 09:21:22;;;;;;;10.15;5.70;;;;;;;;;;5012675;28;20517;-76
2023/04/05 09:23:55;;;;;;;10.68;5.65;;;;;;;;;;4995187;28;20965;-76
2023/04/05 09:26:25;;;;;;;11.05;5.10;;;;;;;;;;4985397;28;20026;-76
2023/04/05 09:28:50;;;;;;;9.05;5.20;;;;;;;;;;5013330;28;20029;-77
2023/04/05 09:31:35;;;;;;;10.15;5.40;;;;;;;;;;5021830;28;20367;-77
2023/04/05 09:34:02;;;;;;;8.82;5.38;;;;;;;;;;4981733;28;20022;-76
2023/04/05 09:36:28;;;;;;;9.25;5.30;;;;;;;;;;5006275;28;20030;-76
2023/04/05 09:39:03;;;;;;;11.05;5.32;;;;;;;;;;5012763;28;20496;-76
2023/04/05 09:41:29;;;;;;;8.05;4.63;;;;;;;;;;5011236;28;20030;-77
2023/04/05 09:43:54;;;;;;;9.10;4.72;;;;;;;;;;4986922;28;20375;-77
2023/04/05 09:46:33;;;;;;;12.40;5.18;;;;;;;;;;4995074;28;20386;-76
2023/04/05 09:49:00;;;;;;;10.32;5.50;;;;;;;;;;4995685;28;20108;-76
2023/04/05 09:51:46;;;;;;;8.80;4.78;;;;;;;;;;5014001;28;20122;-76
2023/04/05 09:54:11;;;;;;;7.03;4.07;;;;;;;;;;5010476;28;20053;-77
2023/04/05 09:56:39;;;;;;;8.85;4.80;;;;;;;;;;5012639;28;20109;-76
2023/04/05 09:59:09;;;;;;;7.25;4.50;;;;;;;;;;4986629;28;20030;-76
2023/04/05 10:01:36;;;;;;;6.95;4.13;;;;;;;;;;4991804;28;20034;-76
2023/04/05 10:04:02;;;;;;;7.25;4.07;;;;;;;;;;4991096;28;20478;-76
2023/04/05 10:06:36;;;;;;;7.68;4.10;;;;;;;;;;4995860;28;20080;-77
2023/04/05 10:09:03;;;;;;;8.55;4.28;;;;;;;;;;4994600;28;20084;-76
2023/04/05 10:11:28;;;;;;;7.40;4.20;;;;;;;;;;4995358;28;20033;-76
2023/04/05 10:13:54;;;;;;;6.65;3.90;;;;;;;;;;5013192;28;20192;-77
2023/04/05 10:16:23;;;;;;;7.07;4.32;;;;;;;;;;4995899;28;20054;-76
2023/04/05 10:18:50;;;;;;;6.55;3.85;;;;;;;;;;5012650;28;20034;-76
2023/04/05 10:21:21;;;;;;;7.85;4.55;;;;;;;;;;5012771;28;20030;-77
2023/04/05 10:23:54;;;;;;;7.32;4.50;;;;;;;;;;5007537;28;20429;-77
2023/04/05 10:26:44;;;;;;;8.07;4.60;;;;;;;;;;5004817;28;20470;-77
2023/04/05 10:29:13;;;;;;;7.30;4.32;;;;;;;;;;5010061;28;20037;-77
2023/04/05 10:31:47;;;;;;;7.35;3.95;;;;;;;;;;4995247;28;20029;-77
2023/04/05 10:34:43;;;;;;;10.70;4.65;;;;;;;;;;4994688;28;20481;-76
2023/04/05 10:37:21;;;;;;;7.53;4.47;;;;;;;;;;5006546;28;20034;-77
2023/04/05 10:39:47;;;;;;;7.72;3.83;;;;;;;;;;5009423;28;20072;-77
2023/04/05 10:42:26;;;;;;;6.22;4.07;;;;;;;;;;5005517;28;20377;-76
2023/04/05 10:44:58;;;;;;;7.13;4.55;;;;;;;;;;4993449;28;20021;-76
2023/04/05 10:47:26;;;;;;;7.60;3.80;;;;;;;;;;5013026;28;20034;-77
2023/04/05 10:49:55;;;;;;;7.25;4.32;;;;;;;;;;5012817;28;20044;-76
2023/04/05 10:52:21;;;;;;;8.30;4.45;;;;;;;;;;5012848;28;20033;-77
2023/04/05 10:54:48;;;;;;;6.60;4.00;;;;;;;;;;4981955;28;20033;-77
2023/04/05 10:57:15;;;;;;;8.15;4.25;;;;;;;;;;5012495;28;20097;-77
2023/04/05 10:59:43;;;;;;;8.40;4.07;;;;;;;;;;4995249;28;20022;-77
2023/04/05 11:02:09;;;;;;;7.30;4.10;;;;;;;;;;5007925;28;20524;-77
2023/04/05 11:04:34;;;;;;;8.77;4.20;;;;;;;;;;5009405;28;20026;-77
2023/04/05 11:07:19;;;;;;;7.60;4.13;;;;;;;;;;5010039;28;20037;-78
2023/04/05 11:10:01;;;;;;;6.65;4.05;;;;;;;;;;5011833;28;20480;-77
2023/04/05 11:12:45;;;;;;;9.20;4.38;;;;;;;;;;5014918;28;20061;-76
2023/04/05 11:15:32;;;;;;;7.00;4.13;;;;;;;;;;4997521;28;20037;-77
2023/04/05 11:18:30;;;;;;;7.22;4.30;;;;;;;;;;4998719;28;20026;-77
2023/04/05 11:21:06;;;;;;;6.93;4.13;;;;;;;;;;5014589;28;20116;-76
2023/04/05 11:23:32;;;;;;;7.13;4.13;;;;;;;;;;4996792;28;20030;-77
2023/04/05 11:26:05;;;;;;;8.50;4.13;;;;;;;;;;5014011;28;20105;-77
2023/04/05 11:28:36;;;;;;;;;;;;;;;;;;5014448;28;20386;-77
2023/04/05 11:31:11;;;;;;;6.45;3.50;;;;;;;;;;4999555;28;19948;-77
2023/04/05 11:33:38;;;;;;;6.47;4.13;;;;;;;;;;4994755;28;20385;-77
2023/04/05 11:36:03;;;;;;;8.52;3.80;;;;;;;;;;5007444;28;20025;-77
2023/04/05 11:38:29;;;;;;;7.07;4.20;;;;;;;;;;4991151;28;20033;-77
2023/04/05 11:41:24;;;;;;;6.72;3.95;;;;;;;;;;4985865;28;20033;-76
2023/04/05 11:43:51;;;;;;;7.70;4.57;;;;;;;;;;5004308;28;20057;-77
2023/04/05 11:46:17;;;;;;;6.97;4.28;;;;;;;;;;4998647;28;20026;-77
2023/04/05 11:48:48;;;;;;;6.25;3.67;;;;;;;;;;4996626;28;20478;-77
2023/04/05 11:51:15;;;;;;;7.55;3.97;;;;;;;;;;4998614;28;20408;-76
2023/04/05 11:53:45;;;;;;;6.65;4.18;;;;;;;;;;4993681;28;20025;-77
2023/04/05 11:56:12;;;;;;;7.38;3.80;;;;;;;;;;5016098;28;20026;-76
2023/04/05 11:58:38;;;;;;;7.75;4.03;;;;;;;;;;5013194;28;20562;-76
2023/04/05 12:01:08;;;;;;;6.78;3.85;;;;;;;;;;5013505;28;20045;-76
2023/04/05 12:03:35;;;;;;;6.10;3.47;;;;;;;;;;4991316;28;20036;-76
2023/04/05 12:06:05;;;;;;;6.43;4.20;;;;;;;;;;4998052;28;20051;-77
2023/04/05 12:08:49;;;;;;;6.53;3.92;;;;;;;;;;5006465;28;20031;-76
2023/04/05 12:11:15;;;;;;;9.25;4.63;;;;;;;;;;4997982;28;20048;-76
2023/04/05 12:13:44;;;;;;;8.38;4.60;;;;;;;;;;5016630;28;20100;-77
2023/04/05 12:16:09;;;;;;;9.77;4.10;;;;;;;;;;4999881;28;20389;-76
2023/04/05 12:18:36;;;;;;;7.53;4.50;;;;;;;;;;5012950;28;20029;-77
2023/04/05 12:21:03;;;;;;;6.70;4.05;;;;;;;;;;5010599;28;20121;-77
2023/04/05 12:23:30;;;;;;;7.57;3.75;;;;;;;;;;5013584;28;20058;-77
2023/04/05 12:25:56;;;;;;;9.52;4.22;;;;;;;;;;4997661;28;20061;-77
2023/04/05 12:28:22;;;;;;;6.82;4.38;;;;;;;;;;5012420;28;20030;-77
2023/04/05 12:30:52;;;;;;;6.97;4.47;;;;;;;;;;5014183;28;20378;-77
2023/04/05 12:33:31;;;;;;;7.95;4.63;;;;;;;;;;4997375;28;20045;-77
2023/04/05 12:36:04;;;;;;;7.80;4.47;;;;;;;;;;4997936;28;20457;-76
2023/04/05 12:38:30;;;;;;;8.15;4.57;;;;;;;;;;4989977;28;20390;-76
2023/04/05 12:41:00;;;;;;;7.80;4.43;;;;;;;;;;5002962;28;20041;-77
2023/04/05 12:43:37;;;;;;;7.38;4.40;;;;;;;;;;4996216;28;20021;-76
2023/04/05 12:46:08;;;;;;;7.70;4.45;;;;;;;;;;5012442;28;20018;-77
2023/04/05 12:48:36;;;;;;;7.60;4.40;;;;;;;;;;4995190;28;20022;-77
2023/04/05 12:51:03;;;;;;;6.50;4.30;;;;;;;;;;4997135;28;20107;-76
2023/04/05 12:53:29;;;;;;;7.78;4.68;;;;;;;;;;5006616;28;20030;-77
2023/04/05 12:55:56;;;;;;;9.95;4.60;;;;;;;;;;5016742;28;20036;-80
2023/04/05 12:58:31;;;;;;;7.00;4.55;;;;;;;;;;5004339;28;20026;-80
2023/04/05 13:00:57;;;;;;;8.45;3.83;;;;;;;;;;5030497;28;20037;-80
2023/04/05 13:03:25;;;;;;;8.77;5.07;;;;;;;;;;5009810;28;20093;-80
2023/04/05 13:05:50;;;;;;;9.57;5.10;;;;;;;;;;5027586;28;20033;-81
2023/04/05 13:08:19;;;;;;;10.05;4.72;;;;;;;;;;5026168;28;20029;-81
2023/04/05 13:10:46;;;;;;;9.35;5.10;;;;;;;;;;5020283;28;20058;-81
2023/04/05 13:13:16;;;;;;;9.45;4.82;;;;;;;;;;5022366;28;20037;-81
2023/04/05 13:15:42;;;;;;;7.70;4.32;;;;;;;;;;5020856;28;20030;-81
2023/04/05 13:18:08;;;;;;;10.98;5.32;;;;;;;;;;5002577;28;20033;-81
2023/04/05 13:20:34;;;;;;;9.38;4.95;;;;;;;;;;5025057;28;20030;-81
2023/04/05 13:22:59;;;;;;;8.82;4.72;;;;;;;;;;5009409;28;20018;-81
2023/04/05 13:25:25;;;;;;;10.40;5.20;;;;;;;;;;5025130;28;20044;-81
2023/04/05 13:27:50;;;;;;;8.18;4.93;;;;;;;;;;5026786;28;20097;-81
2023/04/05 13:30:16;;;;;;;8.30;4.30;;;;;;;;;;5029881;28;20052;-81
2023/04/05 13:32:41;;;;;;;8.43;5.13;;;;;;;;;;5011473;28;20071;-81
2023/04/05 13:35:07;;;;;;;8.82;4.90;;;;;;;;;;5028974;28;20037;-80
2023/04/05 13:37:33;;;;;;;7.80;4.70;;;;;;;;;;5005132;28;20033;-81
2023/04/05 13:39:58;;;;;;;9.30;4.70;;;;;;;;;;4993496;28;20032;-81
2023/04/05 13:42:24;;;;;;;8.80;4.65;;;;;;;;;;5023944;28;20034;-81
2023/04/05 13:44:49;;;;;;;10.77;5.03;;;;;;;;;;5011917;28;20116;-81
2023/04/05 13:47:15;;;;;;;7.68;5.18;;;;;;;;;;5028828;28;20047;-81
2023/04/05 13:49:43;;;;;;;9.70;4.95;;;;;;;;;;5030787;28;20030;-81
2023/04/05 13:52:09;;;;;;;8.60;4.93;;;;;;;;;;5029050;28;20037;-81
2023/04/05 13:54:34;;;;;;;9.23;5.18;;;;;;;;;;5004395;28;20030;-81
2023/04/05 13:56:59;;;;;;;9.25;5.40;;;;;;;;;;5018212;28;20029;-81
2023/04/05 13:59:25;;;;;;;7.72;4.97;;;;;;;;;;5020522;28;20026;-80
2023/04/05 14:01:51;;;;;;;8.27;4.90;;;;;;;;;;5021089;28;20087;-81
2023/04/05 14:04:17;;;;;;;7.97;4.60;;;;;;;;;;5002589;28;20030;-81
2023/04/05 14:06:42;;;;;;;7.82;4.95;;;;;;;;;;5008921;28;20068;-81
2023/04/05 14:09:08;;;;;;;7.25;4.60;;;;;;;;;;5014733;28;21379;-81
2023/04/05 14:11:34;;;;;;;7.95;4.85;;;;;;;;;;5015344;28;20028;-81
2023/04/05 14:14:00;;;;;;;9.18;5.70;;;;;;;;;;4990527;28;20090;-80
2023/04/05 14:16:26;;;;;;;7.50;5.07;;;;;;;;;;5015376;28;20081;-81
2023/04/05 14:18:51;;;;;;;9.65;5.20;;;;;;;;;;5013578;28;20077;-81
2023/04/05 14:21:17;;;;;;;8.57;5.15;;;;;;;;;;5014444;28;20097;-80
2023/04/05 14:23:42;;;;;;;7.35;5.00;;;;;;;;;;4995933;28;20095;-80
2023/04/05 14:26:08;;;;;;;9.93;5.07;;;;;;;;;;5015584;28;20040;-80
2023/04/05 14:28:34;;;;;;;8.40;5.22;;;;;;;;;;5005529;28;20524;-81
2023/04/05 14:31:00;;;;;;;8.23;5.10;;;;;;;;;;4995968;28;20397;-81
2023/04/05 14:33:26;;;;;;;8.10;5.30;;;;;;;;;;5012712;28;20041;-81
2023/04/05 14:35:52;;;;;;;9.00;5.10;;;;;;;;;;5016348;28;20033;-81
2023/04/05 14:38:17;;;;;;;8.27;5.05;;;;;;;;;;5007866;28;20755;-82
2023/04/05 14:40:42;;;;;;;6.95;4.55;;;;;;;;;;5016469;28;20037;-81
2023/04/05 14:43:08;;;;;;;7.82;5.25;;;;;;;;;;4991749;28;20571;-81
2023/04/05 14:45:33;;;;;;;8.52;5.13;;;;;;;;;;4993943;28;20029;-81